Time;durP1;ratioP1;P1;durP2;ratioP2;P2;SDS_P1;SDS_P2;PMS_P1;PMS_P2;Temp;Humidity;BMP_temperature;BMP_pressure;BME280_temperature;BME280_humidity;BME280_pressure;Samples;Min_cycle;Max_cycle;Signal;HPM_P1;HPM_P2
2023/03/05 00:01:32;;;;;;;43.70;25.02;;;;;;;;;;6247104;28;20050;-80
2023/03/05 00:04:34;;;;;;;45.22;25.55;;;;;;;;;;6245191;28;20046;-78
2023/03/05 00:07:36;;;;;;;60.88;34.85;;;;;;;;;;6249130;28;20053;-78
2023/03/05 00:10:39;;;;;;;109.47;56.53;;;;;;;;;;6246835;28;20104;-82
2023/03/05 00:13:41;;;;;;;79.95;44.03;;;;;;;;;;6248409;28;20060;-81
2023/03/05 00:16:43;;;;;;;82.80;46.22;;;;;;;;;;6245431;28;20050;-83
2023/03/05 00:19:44;;;;;;;72.78;41.22;;;;;;;;;;6249116;28;20071;-80
2023/03/05 00:22:46;;;;;;;67.65;38.47;;;;;;;;;;6247544;28;20333;-81
2023/03/05 00:25:49;;;;;;;67.63;36.85;;;;;;;;;;6244276;28;20053;-75
2023/03/05 00:28:51;;;;;;;52.70;29.67;;;;;;;;;;6246666;28;20808;-79
2023/03/05 00:31:53;;;;;;;50.40;28.08;;;;;;;;;;6249291;28;20049;-78
2023/03/05 00:34:54;;;;;;;43.90;26.42;;;;;;;;;;6247803;28;20045;-79
2023/03/05 00:37:56;;;;;;;42.90;26.48;;;;;;;;;;6247339;28;20050;-78
2023/03/05 00:40:59;;;;;;;48.92;28.13;;;;;;;;;;6245668;28;20050;-80
2023/03/05 00:44:01;;;;;;;43.17;26.58;;;;;;;;;;6245553;28;20061;-79
2023/03/05 00:47:03;;;;;;;41.92;26.95;;;;;;;;;;6245898;28;20068;-80
2023/03/05 00:50:07;;;;;;;47.53;26.90;;;;;;;;;;6241733;28;20306;-78
2023/03/05 00:53:09;;;;;;;44.13;27.60;;;;;;;;;;6250128;28;20488;-78
2023/03/05 00:56:12;;;;;;;41.03;25.45;;;;;;;;;;6247234;28;20050;-75
2023/03/05 00:59:19;;;;;;;46.05;26.92;;;;;;;;;;6248610;28;20057;-78
2023/03/05 01:02:21;;;;;;;47.28;25.58;;;;;;;;;;6247542;28;20580;-77
2023/03/05 01:05:23;;;;;;;45.08;26.60;;;;;;;;;;6247373;28;20061;-76
2023/03/05 01:08:25;;;;;;;47.67;27.75;;;;;;;;;;6247919;28;20057;-77
2023/03/05 01:11:29;;;;;;;43.25;26.85;;;;;;;;;;6246184;28;20052;-77
2023/03/05 01:14:31;;;;;;;46.50;27.30;;;;;;;;;;6246811;28;20049;-78
2023/03/05 01:17:33;;;;;;;46.53;29.17;;;;;;;;;;6245308;28;20064;-78
2023/03/05 01:20:35;;;;;;;46.75;28.42;;;;;;;;;;6245988;28;20104;-78
2023/03/05 01:23:37;;;;;;;46.13;27.33;;;;;;;;;;6247684;28;20052;-78
2023/03/05 01:26:40;;;;;;;50.95;29.35;;;;;;;;;;6248632;28;20095;-77
2023/03/05 01:29:41;;;;;;;49.80;31.25;;;;;;;;;;6249221;28;20063;-78
2023/03/05 01:32:43;;;;;;;49.33;28.80;;;;;;;;;;6245011;28;20064;-77
2023/03/05 01:35:46;;;;;;;50.58;30.40;;;;;;;;;;6250151;28;20510;-78
2023/03/05 01:38:48;;;;;;;47.95;28.48;;;;;;;;;;6247689;28;20131;-77
2023/03/05 01:41:51;;;;;;;45.60;29.00;;;;;;;;;;6245941;28;20053;-77
2023/03/05 01:45:00;;;;;;;47.58;29.92;;;;;;;;;;6247679;28;20360;-76
2023/03/05 01:48:02;;;;;;;49.70;29.02;;;;;;;;;;6245046;28;20369;-77
2023/03/05 01:51:04;;;;;;;45.15;29.08;;;;;;;;;;6250554;28;20053;-77
2023/03/05 01:54:07;;;;;;;48.22;28.67;;;;;;;;;;6246556;28;20329;-78
2023/03/05 01:57:13;;;;;;;47.63;29.45;;;;;;;;;;6243017;28;20050;-77
2023/03/05 02:00:17;;;;;;;51.38;30.02;;;;;;;;;;6247030;28;20367;-78
2023/03/05 02:03:19;;;;;;;;;;;;;;;;;;6247346;28;20211;-77
2023/03/05 02:06:21;;;;;;;47.00;28.63;;;;;;;;;;6249292;28;20148;-78
2023/03/05 02:09:23;;;;;;;48.47;29.88;;;;;;;;;;6250484;28;20057;-77
2023/03/05 02:12:26;;;;;;;47.55;28.60;;;;;;;;;;6250073;28;20085;-77
2023/03/05 02:15:28;;;;;;;48.63;29.05;;;;;;;;;;6250045;28;20341;-78
2023/03/05 02:18:30;;;;;;;47.67;28.92;;;;;;;;;;6249612;28;20041;-77
2023/03/05 02:21:39;;;;;;;47.25;28.63;;;;;;;;;;6247535;28;20060;-78
2023/03/05 02:24:41;;;;;;;47.47;29.90;;;;;;;;;;6249390;28;20054;-77
2023/03/05 02:27:45;;;;;;;48.10;29.02;;;;;;;;;;6250232;28;20088;-77
2023/03/05 02:30:46;;;;;;;52.65;30.83;;;;;;;;;;6249109;28;20061;-78
2023/03/05 02:33:49;;;;;;;45.60;28.40;;;;;;;;;;6245526;28;20050;-78
2023/03/05 02:36:54;;;;;;;48.42;30.15;;;;;;;;;;6250125;28;20049;-77
2023/03/05 02:39:56;;;;;;;50.50;29.52;;;;;;;;;;6248355;28;20288;-77
2023/03/05 02:42:57;;;;;;;47.90;28.92;;;;;;;;;;6247481;28;20103;-77
2023/03/05 02:45:59;;;;;;;52.22;30.98;;;;;;;;;;6249846;28;20052;-78
2023/03/05 02:49:01;;;;;;;47.42;28.92;;;;;;;;;;6249762;28;20053;-78
2023/03/05 02:52:05;;;;;;;51.67;29.52;;;;;;;;;;6249966;28;20107;-78
2023/03/05 02:55:07;;;;;;;50.97;31.02;;;;;;;;;;6248243;28;20056;-77
2023/03/05 02:58:09;;;;;;;48.15;28.52;;;;;;;;;;6255026;28;20276;-77
2023/03/05 03:01:11;;;;;;;48.83;29.67;;;;;;;;;;6253376;28;20068;-77
2023/03/05 03:04:13;;;;;;;43.33;27.45;;;;;;;;;;6256079;28;20061;-77
2023/03/05 03:07:16;;;;;;;50.33;29.92;;;;;;;;;;6254659;28;20060;-77
2023/03/05 03:10:20;;;;;;;51.53;30.02;;;;;;;;;;6253661;28;20057;-78
2023/03/05 03:13:22;;;;;;;54.22;29.98;;;;;;;;;;6251605;28;20077;-77
2023/03/05 03:16:24;;;;;;;55.33;31.10;;;;;;;;;;6254899;28;20277;-77
2023/03/05 03:19:26;;;;;;;54.63;31.25;;;;;;;;;;6250419;28;20057;-77
2023/03/05 03:22:29;;;;;;;52.80;30.95;;;;;;;;;;6254924;28;20053;-77
2023/03/05 03:25:31;;;;;;;47.35;29.38;;;;;;;;;;6251558;28;20354;-77
2023/03/05 03:28:33;;;;;;;51.03;29.17;;;;;;;;;;6250533;28;20049;-78
2023/03/05 03:31:34;;;;;;;48.95;28.98;;;;;;;;;;6248903;28;20054;-77
2023/03/05 03:34:36;;;;;;;50.38;30.55;;;;;;;;;;6251070;28;20103;-77
2023/03/05 03:37:40;;;;;;;49.55;30.02;;;;;;;;;;6248841;28;20053;-77
2023/03/05 03:40:42;;;;;;;51.25;28.83;;;;;;;;;;6242530;28;20061;-76
2023/03/05 03:43:43;;;;;;;47.40;29.58;;;;;;;;;;6243655;28;20065;-78
2023/03/05 03:46:46;;;;;;;45.90;28.83;;;;;;;;;;6246325;28;20571;-77
2023/03/05 03:49:48;;;;;;;48.55;28.73;;;;;;;;;;6249807;28;20041;-77
2023/03/05 03:52:51;;;;;;;50.58;29.58;;;;;;;;;;6247517;28;20056;-76
2023/03/05 03:55:58;;;;;;;54.17;29.73;;;;;;;;;;6240158;28;20107;-77
2023/03/05 03:58:59;;;;;;;47.45;29.20;;;;;;;;;;6240954;28;20070;-78
2023/03/05 04:02:01;;;;;;;46.92;28.40;;;;;;;;;;6239993;28;20152;-77
2023/03/05 04:05:04;;;;;;;51.22;29.20;;;;;;;;;;6240634;28;20284;-77
2023/03/05 04:08:10;;;;;;;54.35;30.10;;;;;;;;;;6245224;28;20256;-77
2023/03/05 04:11:12;;;;;;;47.85;29.52;;;;;;;;;;6241040;28;20144;-78
2023/03/05 04:14:14;;;;;;;48.22;28.77;;;;;;;;;;6239404;28;20601;-78
2023/03/05 04:17:16;;;;;;;55.85;30.45;;;;;;;;;;6245671;28;20053;-77
2023/03/05 04:20:18;;;;;;;54.33;30.15;;;;;;;;;;6250582;28;20045;-77
2023/03/05 04:23:21;;;;;;;48.30;28.85;;;;;;;;;;6247672;28;20395;-77
2023/03/05 04:26:23;;;;;;;52.00;29.25;;;;;;;;;;6242839;28;21119;-77
2023/03/05 04:29:24;;;;;;;53.92;29.58;;;;;;;;;;6242629;28;20059;-77
2023/03/05 04:32:28;;;;;;;49.15;28.45;;;;;;;;;;6245300;28;20379;-78
2023/03/05 04:35:30;;;;;;;50.55;29.20;;;;;;;;;;6247007;28;20408;-78
2023/03/05 04:38:33;;;;;;;45.80;27.35;;;;;;;;;;6245723;28;20049;-78
2023/03/05 04:41:35;;;;;;;43.80;27.92;;;;;;;;;;6245764;28;20041;-78
2023/03/05 04:44:36;;;;;;;50.55;29.00;;;;;;;;;;6246729;28;20218;-77
2023/03/05 04:47:38;;;;;;;45.25;27.10;;;;;;;;;;6250401;28;20325;-78
2023/03/05 04:50:40;;;;;;;50.38;29.10;;;;;;;;;;6247195;28;20052;-77
2023/03/05 04:53:43;;;;;;;48.90;29.60;;;;;;;;;;6245650;28;20158;-78
2023/03/05 04:56:45;;;;;;;47.75;29.05;;;;;;;;;;6246958;28;20068;-77
2023/03/05 04:59:47;;;;;;;47.95;28.48;;;;;;;;;;6244554;28;20171;-77
2023/03/05 05:02:50;;;;;;;49.53;28.83;;;;;;;;;;6244954;28;20155;-78
2023/03/05 05:05:55;;;;;;;46.63;27.73;;;;;;;;;;6248661;28;20099;-77
2023/03/05 05:08:58;;;;;;;48.60;28.92;;;;;;;;;;6250229;28;20688;-77
2023/03/05 05:11:59;;;;;;;48.20;27.48;;;;;;;;;;6246393;28;20049;-77
2023/03/05 05:15:01;;;;;;;50.08;28.45;;;;;;;;;;6246694;28;20049;-76
2023/03/05 05:18:03;;;;;;;49.05;28.42;;;;;;;;;;6247947;28;20065;-76
2023/03/05 05:21:08;;;;;;;45.45;27.88;;;;;;;;;;6246099;28;20057;-77
2023/03/05 05:24:11;;;;;;;49.53;27.90;;;;;;;;;;6248556;28;20116;-78
2023/03/05 05:27:13;;;;;;;49.53;27.75;;;;;;;;;;6245953;28;20597;-77
2023/03/05 05:30:15;;;;;;;46.05;28.02;;;;;;;;;;6245529;28;20049;-76
2023/03/05 05:33:16;;;;;;;48.58;27.60;;;;;;;;;;6246377;28;20053;-78
2023/03/05 05:36:21;;;;;;;45.75;28.02;;;;;;;;;;6246928;28;20049;-77
2023/03/05 05:39:24;;;;;;;41.97;26.58;;;;;;;;;;6247040;28;20052;-76
2023/03/05 05:42:25;;;;;;;46.80;28.23;;;;;;;;;;6246661;28;20049;-77
2023/03/05 05:45:27;;;;;;;50.80;27.90;;;;;;;;;;6245807;28;20045;-77
2023/03/05 05:48:29;;;;;;;51.63;28.35;;;;;;;;;;6243254;28;20049;-77
2023/03/05 05:51:31;;;;;;;50.08;28.10;;;;;;;;;;6250049;28;20057;-75
2023/03/05 05:54:34;;;;;;;46.20;28.42;;;;;;;;;;6247736;28;20087;-76
2023/03/05 05:57:36;;;;;;;46.30;27.55;;;;;;;;;;6247524;28;20049;-77
2023/03/05 06:00:38;;;;;;;45.17;27.05;;;;;;;;;;6247927;28;20261;-76
2023/03/05 06:03:40;;;;;;;48.47;27.25;;;;;;;;;;6246555;28;20061;-76
2023/03/05 06:06:41;;;;;;;49.55;26.98;;;;;;;;;;6246410;28;20359;-77
2023/03/05 06:09:45;;;;;;;47.00;27.77;;;;;;;;;;6246038;28;20361;-76
2023/03/05 06:12:46;;;;;;;49.17;28.58;;;;;;;;;;6243219;28;20057;-77
2023/03/05 06:15:56;;;;;;;49.30;29.15;;;;;;;;;;6247474;28;20148;-75
2023/03/05 06:19:03;;;;;;;50.92;28.95;;;;;;;;;;6246865;28;20041;-77
2023/03/05 06:22:04;;;;;;;47.95;29.30;;;;;;;;;;6248279;28;20056;-75
2023/03/05 06:25:09;;;;;;;50.47;29.05;;;;;;;;;;6246454;28;20593;-77
2023/03/05 06:28:11;;;;;;;49.95;28.67;;;;;;;;;;6246573;28;20244;-77
2023/03/05 06:31:14;;;;;;;50.63;29.80;;;;;;;;;;6245792;28;20049;-77
2023/03/05 06:34:15;;;;;;;51.75;29.35;;;;;;;;;;6247215;28;20211;-77
2023/03/05 06:37:17;;;;;;;44.92;27.85;;;;;;;;;;6249818;28;20061;-77
2023/03/05 06:40:20;;;;;;;53.22;29.98;;;;;;;;;;6244199;28;20056;-78
2023/03/05 06:43:22;;;;;;;46.28;27.77;;;;;;;;;;6246910;28;20053;-76
2023/03/05 06:46:25;;;;;;;44.05;27.23;;;;;;;;;;6245655;28;20134;-76
2023/03/05 06:49:27;;;;;;;48.15;28.38;;;;;;;;;;6246271;28;20105;-77
2023/03/05 06:52:29;;;;;;;47.05;27.70;;;;;;;;;;6242756;28;20728;-77
2023/03/05 06:55:38;;;;;;;44.53;26.55;;;;;;;;;;6245911;28;20108;-77
2023/03/05 06:58:40;;;;;;;46.17;27.98;;;;;;;;;;6244413;28;20049;-76
2023/03/05 07:01:42;;;;;;;46.30;28.45;;;;;;;;;;6242972;28;20053;-74
2023/03/05 07:04:43;;;;;;;44.70;28.02;;;;;;;;;;6247369;28;20045;-77
2023/03/05 07:07:45;;;;;;;44.88;27.85;;;;;;;;;;6246926;28;20068;-77
2023/03/05 07:10:48;;;;;;;44.30;26.80;;;;;;;;;;6245579;28;20045;-75
2023/03/05 07:13:51;;;;;;;44.58;28.80;;;;;;;;;;6243681;28;20050;-76
2023/03/05 07:16:52;;;;;;;48.78;28.67;;;;;;;;;;6245585;28;20107;-77
2023/03/05 07:19:54;;;;;;;47.78;28.27;;;;;;;;;;6243644;28;20045;-79
2023/03/05 07:22:56;;;;;;;44.90;27.23;;;;;;;;;;6243063;28;20053;-78
2023/03/05 07:26:02;;;;;;;44.47;26.80;;;;;;;;;;6247239;28;20115;-77
2023/03/05 07:29:04;;;;;;;40.53;25.98;;;;;;;;;;6245822;28;20060;-78
2023/03/05 07:32:06;;;;;;;41.45;25.58;;;;;;;;;;6246919;28;20084;-78
2023/03/05 07:35:11;;;;;;;40.40;26.60;;;;;;;;;;6244395;28;20057;-78
2023/03/05 07:38:13;;;;;;;47.05;26.90;;;;;;;;;;6250148;28;20060;-77
2023/03/05 07:41:19;;;;;;;44.90;25.15;;;;;;;;;;6250550;28;20435;-79
2023/03/05 07:44:21;;;;;;;42.58;25.63;;;;;;;;;;6247513;28;20053;-79
2023/03/05 07:47:23;;;;;;;39.80;25.00;;;;;;;;;;6248771;28;20462;-78
2023/03/05 07:50:25;;;;;;;43.85;26.13;;;;;;;;;;6249480;28;20064;-75
2023/03/05 07:53:26;;;;;;;41.22;26.05;;;;;;;;;;6252063;28;20053;-78
2023/03/05 07:56:31;;;;;;;46.38;28.10;;;;;;;;;;6249889;28;20060;-77
2023/03/05 07:59:32;;;;;;;44.03;27.42;;;;;;;;;;6243862;28;20056;-76
2023/03/05 08:02:34;;;;;;;40.83;26.83;;;;;;;;;;6245197;28;20118;-78
2023/03/05 08:05:39;;;;;;;42.13;25.85;;;;;;;;;;6244592;28;20057;-75
2023/03/05 08:08:40;;;;;;;42.67;27.80;;;;;;;;;;6245846;28;20476;-80
2023/03/05 08:11:44;;;;;;;43.58;29.77;;;;;;;;;;6247342;28;20048;-79
2023/03/05 08:14:46;;;;;;;45.55;28.73;;;;;;;;;;6246249;28;20131;-80
2023/03/05 08:17:48;;;;;;;44.90;29.23;;;;;;;;;;6249492;28;20162;-79
2023/03/05 08:20:50;;;;;;;41.30;27.85;;;;;;;;;;6247057;28;20057;-77
2023/03/05 08:23:51;;;;;;;43.97;27.77;;;;;;;;;;6246782;28;20058;-80
2023/03/05 08:26:55;;;;;;;38.20;25.08;;;;;;;;;;6250474;28;20057;-79
2023/03/05 08:29:56;;;;;;;36.47;24.00;;;;;;;;;;6247830;28;20053;-80
2023/03/05 08:32:58;;;;;;;40.13;25.98;;;;;;;;;;6244863;28;20233;-80
2023/03/05 08:36:00;;;;;;;39.88;26.05;;;;;;;;;;6248782;28;20474;-80
2023/03/05 08:39:02;;;;;;;38.65;26.60;;;;;;;;;;6251751;28;20045;-81
2023/03/05 08:42:06;;;;;;;42.95;28.48;;;;;;;;;;6249484;28;20081;-80
2023/03/05 08:45:09;;;;;;;41.83;29.75;;;;;;;;;;6248499;28;20116;-79
2023/03/05 08:48:11;;;;;;;39.28;26.23;;;;;;;;;;6252016;28;20053;-82
2023/03/05 08:51:14;;;;;;;41.40;26.95;;;;;;;;;;6250052;28;20265;-81
2023/03/05 08:54:15;;;;;;;41.85;29.42;;;;;;;;;;6253761;28;20329;-81
2023/03/05 08:57:19;;;;;;;39.17;28.20;;;;;;;;;;6249166;28;20045;-81
2023/03/05 09:00:21;;;;;;;38.00;27.02;;;;;;;;;;6253801;28;20099;-82
2023/03/05 09:03:22;;;;;;;42.58;27.63;;;;;;;;;;6250668;28;20038;-80
2023/03/05 09:06:24;;;;;;;36.85;25.77;;;;;;;;;;6254612;28;20374;-81
2023/03/05 09:09:28;;;;;;;40.13;27.38;;;;;;;;;;6250239;28;20195;-80
2023/03/05 09:12:31;;;;;;;43.65;31.85;;;;;;;;;;6249622;28;20095;-74
2023/03/05 09:15:33;;;;;;;38.03;26.95;;;;;;;;;;6253351;28;20068;-82
2023/03/05 09:18:36;;;;;;;36.15;27.13;;;;;;;;;;6249213;28;20080;-82
2023/03/05 09:21:38;;;;;;;36.90;26.92;;;;;;;;;;6251136;28;20074;-82
2023/03/05 09:24:39;;;;;;;33.10;24.95;;;;;;;;;;6249526;28;20045;-81
2023/03/05 09:27:44;;;;;;;42.17;30.30;;;;;;;;;;6247461;28;20125;-80
2023/03/05 09:30:45;;;;;;;43.63;30.30;;;;;;;;;;6245606;28;20402;-80
2023/03/05 09:33:48;;;;;;;38.67;28.23;;;;;;;;;;6244718;28;20107;-81
2023/03/05 09:36:50;;;;;;;37.90;27.42;;;;;;;;;;6248792;28;20076;-79
2023/03/05 09:39:52;;;;;;;41.38;29.05;;;;;;;;;;6245069;28;20103;-78
2023/03/05 09:43:03;;;;;;;38.13;27.90;;;;;;;;;;6247706;28;20171;-76
2023/03/05 09:46:16;;;;;;;41.00;28.10;;;;;;;;;;6242727;28;20053;-78
2023/03/05 09:49:24;;;;;;;36.47;26.73;;;;;;;;;;6244262;28;20057;-79
2023/03/05 09:52:35;;;;;;;42.90;29.65;;;;;;;;;;6248349;28;20123;-79
2023/03/05 09:55:39;;;;;;;37.75;28.35;;;;;;;;;;6248311;28;20053;-79
2023/03/05 09:58:45;;;;;;;37.63;25.90;;;;;;;;;;6245968;28;20061;-80
2023/03/05 10:01:48;;;;;;;30.83;24.45;;;;;;;;;;6246037;28;20068;-79
2023/03/05 10:04:55;;;;;;;30.33;22.33;;;;;;;;;;6246543;28;20121;-78
2023/03/05 10:08:01;;;;;;;32.72;24.40;;;;;;;;;;6247368;28;20410;-80
2023/03/05 10:11:07;;;;;;;33.38;25.23;;;;;;;;;;6246076;28;20052;-79
2023/03/05 10:14:15;;;;;;;34.83;25.98;;;;;;;;;;6244713;28;20057;-79
2023/03/05 10:18:04;;;;;;;30.80;23.38;;;;;;;;;;6246472;28;20056;-76
2023/03/05 10:21:10;;;;;;;32.05;24.15;;;;;;;;;;6227135;28;20155;-79
2023/03/05 10:24:14;;;;;;;34.90;23.60;;;;;;;;;;6252238;28;20246;-80
2023/03/05 10:27:20;;;;;;;33.05;22.50;;;;;;;;;;6249447;28;20301;-80
2023/03/05 10:30:40;;;;;;;29.77;21.90;;;;;;;;;;6249373;28;20268;-78
2023/03/05 10:33:49;;;;;;;33.55;24.23;;;;;;;;;;6252141;28;20117;-79
2023/03/05 10:37:03;;;;;;;27.80;21.63;;;;;;;;;;6249732;28;20121;-79
2023/03/05 10:40:16;;;;;;;37.30;27.17;;;;;;;;;;6251574;28;20049;-80
2023/03/05 10:43:24;;;;;;;27.58;21.48;;;;;;;;;;6251767;28;20103;-80
2023/03/05 10:46:30;;;;;;;28.90;22.27;;;;;;;;;;6248529;28;20321;-78
2023/03/05 10:49:35;;;;;;;27.08;19.13;;;;;;;;;;6248730;28;20037;-80
2023/03/05 10:52:40;;;;;;;27.73;21.27;;;;;;;;;;6249924;28;20241;-79
2023/03/05 10:55:42;;;;;;;31.80;22.70;;;;;;;;;;6242588;28;20063;-78
2023/03/05 10:58:43;;;;;;;32.70;22.88;;;;;;;;;;6246323;28;20384;-77
2023/03/05 11:02:02;;;;;;;35.03;26.73;;;;;;;;;;6244569;28;20064;-78
2023/03/05 11:05:04;;;;;;;34.08;24.42;;;;;;;;;;6243727;28;20107;-82
2023/03/05 11:08:23;;;;;;;30.00;22.52;;;;;;;;;;6245026;28;20054;-79
2023/03/05 11:11:25;;;;;;;34.22;24.83;;;;;;;;;;6240404;28;20064;-79
2023/03/05 11:14:31;;;;;;;31.55;23.80;;;;;;;;;;6246824;28;20104;-85
2023/03/05 11:17:37;;;;;;;33.28;23.77;;;;;;;;;;6249061;28;20107;-83
2023/03/05 11:20:38;;;;;;;30.73;21.10;;;;;;;;;;6246552;28;20095;-80
2023/03/05 11:23:40;;;;;;;29.98;20.88;;;;;;;;;;6246462;28;20057;-81
2023/03/05 11:26:50;;;;;;;29.55;20.23;;;;;;;;;;6246755;28;20076;-83
2023/03/05 11:29:52;;;;;;;27.83;19.25;;;;;;;;;;6243929;28;20261;-80
2023/03/05 11:33:09;;;;;;;32.67;22.17;;;;;;;;;;6250915;28;20045;-83
2023/03/05 11:36:24;;;;;;;29.65;19.65;;;;;;;;;;6252332;28;20050;-80
2023/03/05 11:39:29;;;;;;;30.60;20.75;;;;;;;;;;6247969;28;20212;-81
2023/03/05 11:42:31;;;;;;;23.73;16.83;;;;;;;;;;6249781;28;20276;-76
2023/03/05 11:45:33;;;;;;;23.48;17.05;;;;;;;;;;6248790;28;20045;-89
2023/03/05 11:48:38;;;;;;;25.00;17.67;;;;;;;;;;6246535;28;20056;-84
2023/03/05 11:51:42;;;;;;;22.67;16.40;;;;;;;;;;6246365;28;20045;-83
2023/03/05 11:54:46;;;;;;;;;;;;;;;;;;6247517;28;20106;-79
2023/03/05 11:57:52;;;;;;;24.25;17.42;;;;;;;;;;6247863;28;19940;-80
2023/03/05 12:00:54;;;;;;;27.70;19.95;;;;;;;;;;6246961;28;20095;-81
2023/03/05 12:04:29;;;;;;;31.17;20.08;;;;;;;;;;6249936;28;20269;-79
2023/03/05 12:07:36;;;;;;;23.35;16.40;;;;;;;;;;6245706;28;20053;-78
2023/03/05 12:10:38;;;;;;;26.50;16.83;;;;;;;;;;6245814;28;20060;-77
2023/03/05 12:13:44;;;;;;;23.02;16.50;;;;;;;;;;6244006;28;20253;-77
2023/03/05 12:17:08;;;;;;;22.88;15.07;;;;;;;;;;6248590;28;20238;-80
2023/03/05 12:20:14;;;;;;;22.25;15.73;;;;;;;;;;6248310;28;20049;-80
2023/03/05 12:23:20;;;;;;;22.92;15.38;;;;;;;;;;6245391;28;20219;-80
2023/03/05 12:26:58;;;;;;;23.40;15.90;;;;;;;;;;6249713;28;20057;-74
2023/03/05 12:30:01;;;;;;;23.52;15.65;;;;;;;;;;6254096;28;20046;-80
2023/03/05 12:33:03;;;;;;;;;;;;;;;;;;6251669;28;20053;-84
2023/03/05 12:36:33;;;;;;;27.85;18.17;;;;;;;;;;6251484;28;19917;-82
2023/03/05 12:40:03;;;;;;;23.42;17.25;;;;;;;;;;6203197;28;20109;-83
2023/03/05 12:43:29;;;;;;;26.15;18.80;;;;;;;;;;6203533;28;20054;-80
2023/03/05 12:46:34;;;;;;;22.30;15.48;;;;;;;;;;6202732;28;20058;-79
2023/03/05 12:49:38;;;;;;;21.40;15.30;;;;;;;;;;6201039;28;20062;-83
2023/03/05 12:52:42;;;;;;;23.75;16.83;;;;;;;;;;6201815;28;20169;-81
2023/03/05 12:55:51;;;;;;;25.10;17.65;;;;;;;;;;6195160;28;20145;-82
2023/03/05 12:58:54;;;;;;;25.13;18.05;;;;;;;;;;6201097;28;20155;-81
2023/03/05 13:01:57;;;;;;;22.48;16.00;;;;;;;;;;6199702;28;20784;-84
2023/03/05 13:05:01;;;;;;;23.70;16.10;;;;;;;;;;6202729;28;20350;-82
2023/03/05 13:08:15;;;;;;;23.13;16.77;;;;;;;;;;6198132;28;20434;-80
2023/03/05 13:11:20;;;;;;;24.45;16.52;;;;;;;;;;6199756;28;20054;-80
2023/03/05 13:14:29;;;;;;;23.98;15.90;;;;;;;;;;6214456;28;20046;-81
2023/03/05 13:17:39;;;;;;;19.27;13.60;;;;;;;;;;6250832;28;20052;-88
2023/03/05 13:20:42;;;;;;;22.92;16.95;;;;;;;;;;6241278;28;20124;-87
2023/03/05 13:23:56;;;;;;;20.08;13.15;;;;;;;;;;6248092;28;20054;-87
2023/03/05 13:26:59;;;;;;;15.73;11.85;;;;;;;;;;6249506;28;20112;-87
2023/03/05 13:30:02;;;;;;;24.60;15.25;;;;;;;;;;6244806;28;20046;-86
2023/03/05 13:33:05;;;;;;;19.57;14.07;;;;;;;;;;6248293;28;20061;-79
2023/03/05 13:36:07;;;;;;;23.05;16.73;;;;;;;;;;6247888;28;20241;-88
2023/03/05 13:39:21;;;;;;;16.90;12.75;;;;;;;;;;6248230;28;20276;-87
2023/03/05 13:42:27;;;;;;;23.27;15.38;;;;;;;;;;6251827;28;20049;-83
2023/03/05 13:45:30;;;;;;;17.73;13.73;;;;;;;;;;6251515;28;20746;-87
2023/03/05 13:48:32;;;;;;;21.58;14.65;;;;;;;;;;6250896;28;20053;-85
2023/03/05 13:51:51;;;;;;;14.20;11.60;;;;;;;;;;6248953;28;20057;-81
2023/03/05 13:54:53;;;;;;;14.45;10.55;;;;;;;;;;6249581;28;20057;-81
2023/03/05 13:57:56;;;;;;;15.82;10.95;;;;;;;;;;6250635;28;20242;-81
2023/03/05 14:01:02;;;;;;;;;;;;;;;;;;6252339;28;20056;-82
2023/03/05 14:04:08;;;;;;;17.85;13.77;;;;;;;;;;6253629;28;19917;-82
2023/03/05 14:07:26;;;;;;;21.38;11.13;;;;;;;;;;6249063;28;20041;-81
2023/03/05 14:10:31;;;;;;;18.35;12.40;;;;;;;;;;6244182;28;20280;-82
2023/03/05 14:13:35;;;;;;;17.35;12.52;;;;;;;;;;6246179;28;20053;-78
2023/03/05 14:16:36;;;;;;;17.70;12.57;;;;;;;;;;6244305;28;20045;-77
2023/03/05 14:19:39;;;;;;;17.15;12.60;;;;;;;;;;6245677;28;20354;-79
2023/03/05 14:22:42;;;;;;;20.00;13.43;;;;;;;;;;6245451;28;20054;-80
2023/03/05 14:25:44;;;;;;;19.88;13.35;;;;;;;;;;6243617;28;20060;-74
2023/03/05 14:28:52;;;;;;;19.52;13.40;;;;;;;;;;6242504;28;20064;-79
2023/03/05 14:31:55;;;;;;;19.30;12.90;;;;;;;;;;6244919;28;20049;-81
2023/03/05 14:34:58;;;;;;;;;;;;;;;;;;6246394;28;20053;-80
2023/03/05 14:38:00;;;;;;;19.35;13.88;;;;;;;;;;6242555;28;19956;-80
2023/03/05 14:41:21;;;;;;;18.25;12.13;;;;;;;;;;6239898;28;20113;-80
2023/03/05 14:44:25;;;;;;;18.63;13.30;;;;;;;;;;6246498;28;20067;-80
2023/03/05 14:47:28;;;;;;;18.33;13.80;;;;;;;;;;6242840;28;20744;-81
2023/03/05 14:50:30;;;;;;;;;;;;;;;;;;6253481;28;20100;-81
2023/03/05 14:53:35;;;;;;;16.70;11.52;;;;;;;;;;6255602;28;20599;-80
2023/03/05 14:56:38;;;;;;;16.27;12.52;;;;;;;;;;6253233;28;20101;-80
2023/03/05 14:59:41;;;;;;;14.55;11.07;;;;;;;;;;6253543;28;20079;-82
2023/03/05 15:02:43;;;;;;;;;;;;;;;;;;6254124;28;20057;-79
2023/03/05 15:05:47;;;;;;;17.67;12.32;;;;;;;;;;6254174;28;19916;-80
2023/03/05 15:08:48;;;;;;;23.48;14.60;;;;;;;;;;6251009;28;20049;-80
2023/03/05 15:11:50;;;;;;;19.65;13.57;;;;;;;;;;6244092;28;20053;-81
2023/03/05 15:14:55;;;;;;;18.42;13.82;;;;;;;;;;6256216;28;20061;-79
2023/03/05 15:17:56;;;;;;;21.50;14.90;;;;;;;;;;6253959;28;20103;-80
2023/03/05 15:20:58;;;;;;;19.67;13.48;;;;;;;;;;6256068;28;20053;-80
2023/03/05 15:24:00;;;;;;;22.00;15.43;;;;;;;;;;6252672;28;20072;-81
2023/03/05 15:27:02;;;;;;;16.25;12.05;;;;;;;;;;6252884;28;20337;-80
2023/03/05 15:30:08;;;;;;;15.10;11.50;;;;;;;;;;6252844;28;20123;-78
2023/03/05 15:33:12;;;;;;;14.32;9.88;;;;;;;;;;6253970;28;20083;-80
2023/03/05 15:36:13;;;;;;;15.55;11.50;;;;;;;;;;6252489;28;20144;-81
2023/03/05 15:39:15;;;;;;;15.90;11.13;;;;;;;;;;6250890;28;20061;-79
2023/03/05 15:42:19;;;;;;;13.73;10.48;;;;;;;;;;6241800;28;20046;-80
2023/03/05 15:45:23;;;;;;;14.60;11.00;;;;;;;;;;6248510;28;20803;-80
2023/03/05 15:48:25;;;;;;;19.27;13.05;;;;;;;;;;6251679;28;20321;-78
2023/03/05 15:51:27;;;;;;;17.20;12.88;;;;;;;;;;6249118;28;20337;-80
2023/03/05 15:54:28;;;;;;;20.25;12.23;;;;;;;;;;6242449;28;20076;-80
2023/03/05 15:57:30;;;;;;;17.77;12.77;;;;;;;;;;6253726;28;20067;-80
2023/03/05 16:00:35;;;;;;;14.82;11.32;;;;;;;;;;6250565;28;20061;-79
2023/03/05 16:03:37;;;;;;;18.35;12.73;;;;;;;;;;6248477;28;20116;-80
2023/03/05 16:06:39;;;;;;;19.35;13.93;;;;;;;;;;6252934;28;20237;-79
2023/03/05 16:09:43;;;;;;;21.80;14.82;;;;;;;;;;6249438;28;20095;-79
2023/03/05 16:12:47;;;;;;;21.85;15.07;;;;;;;;;;6251268;28;20077;-80
2023/03/05 16:16:06;;;;;;;17.65;13.15;;;;;;;;;;6252724;28;20287;-78
2023/03/05 16:19:09;;;;;;;17.67;11.90;;;;;;;;;;6248765;28;20045;-78
2023/03/05 16:22:11;;;;;;;18.95;12.55;;;;;;;;;;6253136;28;20049;-79
2023/03/05 16:25:13;;;;;;;16.85;11.88;;;;;;;;;;6251491;28;20050;-75
2023/03/05 16:28:15;;;;;;;18.25;11.77;;;;;;;;;;6247989;28;20140;-80
2023/03/05 16:31:18;;;;;;;18.08;12.20;;;;;;;;;;6251211;28;20274;-80
2023/03/05 16:34:20;;;;;;;16.73;10.40;;;;;;;;;;6253806;28;20053;-82
2023/03/05 16:37:23;;;;;;;16.55;12.13;;;;;;;;;;6250708;28;20061;-78
2023/03/05 16:40:25;;;;;;;19.80;12.85;;;;;;;;;;6253552;28;20056;-80
2023/03/05 16:43:27;;;;;;;15.88;11.32;;;;;;;;;;6248957;28;20061;-78
2023/03/05 16:46:30;;;;;;;19.92;13.35;;;;;;;;;;6252329;28;20048;-79
2023/03/05 16:49:34;;;;;;;21.55;12.35;;;;;;;;;;6254722;28;20069;-76
2023/03/05 16:52:38;;;;;;;20.00;11.45;;;;;;;;;;6252339;28;20322;-78
2023/03/05 16:55:40;;;;;;;18.15;10.90;;;;;;;;;;6249699;28;20069;-80
2023/03/05 16:58:41;;;;;;;16.50;10.07;;;;;;;;;;6251049;28;20513;-80
2023/03/05 17:01:45;;;;;;;21.55;12.85;;;;;;;;;;6253140;28;20113;-79
2023/03/05 17:04:55;;;;;;;19.50;11.23;;;;;;;;;;6254217;28;20057;-80
2023/03/05 17:07:56;;;;;;;20.52;12.15;;;;;;;;;;6253169;28;20072;-80
2023/03/05 17:10:58;;;;;;;24.83;14.93;;;;;;;;;;6251729;28;20054;-75
2023/03/05 17:14:02;;;;;;;22.80;13.00;;;;;;;;;;6250331;28;20049;-78
2023/03/05 17:17:05;;;;;;;;;;;;;;;;;;6249553;28;20121;-77
2023/03/05 17:20:09;;;;;;;23.73;13.25;;;;;;;;;;6245180;28;19917;-77
2023/03/05 17:23:10;;;;;;;23.48;14.15;;;;;;;;;;6246470;28;20342;-75
2023/03/05 17:26:15;;;;;;;24.10;14.30;;;;;;;;;;6248520;28;20091;-77
2023/03/05 17:29:17;;;;;;;28.08;15.70;;;;;;;;;;6244100;28;20064;-77
2023/03/05 17:32:20;;;;;;;30.10;16.77;;;;;;;;;;6248341;28;20117;-77
2023/03/05 17:35:34;;;;;;;26.98;14.95;;;;;;;;;;6247137;28;20052;-76
2023/03/05 17:38:35;;;;;;;22.17;13.50;;;;;;;;;;6247495;28;20051;-74
2023/03/05 17:41:37;;;;;;;26.60;13.90;;;;;;;;;;6241832;28;20107;-76
2023/03/05 17:44:39;;;;;;;31.02;11.40;;;;;;;;;;6249328;28;20057;-75
2023/03/05 17:47:42;;;;;;;17.13;8.70;;;;;;;;;;6245978;28;20061;-75
2023/03/05 17:50:45;;;;;;;13.13;7.07;;;;;;;;;;6246694;28;20349;-75
2023/03/05 17:53:47;;;;;;;9.20;5.03;;;;;;;;;;6247644;28;20058;-77
2023/03/05 17:56:49;;;;;;;10.77;5.57;;;;;;;;;;6250209;28;20111;-76